logo dgac
Lunes 19 de Abril del 2021
Buscar por aerodromo o helipuerto
Ingrese nombre de aeródromo, localidad o designador OACI:

Aeródromo: Nuevo Chaitén (SCTN)

Ubicación: Chaitén, X Región, Chile (42º 46' 55'' S, 72º 50' 06'' W) Ver ubicación en el mapa

Pistas

Orientación Dimensión Pendiente Superficie Resistencia APCH THR RWY PAPI
01 - 19 1200 x 30 0,20 Asfalto 20 F/A/W/T No Sí (3º)
Horas de operación HJ
Elevación 8,2 m (26,95 ft) ft
Otra Información Adm : DGAC
Uso : PUB
Ubicado: 18,6 Km NW de Chaitén
Fono : 652486393 CEL +56 9 40418511
email : aro.nuevochaiten@dgac.gob.cl

Otra información ver AIP-Chile Volumen I AD 3.9-3.6-C
CCCM/FCCV Descargar
andera de Chile
Mapa de Nuevo Chaitén (SCTN)

Último METAR

METAR SCTN 191100Z AUTO 36025G37KT //// R/////// FEW022 OVC041 16/15 Q1000

Último TAF

TAF SCTN 191046Z 1912/1924 33023G33KT 2000 +RA SCT012 OVC020 TX16/1912Z TN11/1923Z BECMG 1914/1916 VRB02KT 9999 -RA SCT020 OVC030 BECMG 1919/1921 NSW FEW020 BKN040

Últimas fotos cámaras

Imagen aerodromo Nuevo Chaitén (SCTN) Norte tomada el 19-04-2021 11:33:17 Imagen aerodromo Nuevo Chaitén (SCTN) Sur tomada el 19-04-2021 11:33:33

Último NOTAM

C1829/21 NOTAMN Q)SCTZ/QFAHW/IV/B/A/000/999/4247S07250W005 A)SCTN B)2104191200 C)2104222200 D)DLY BTN 1200-2200 E)AD WIP MOVIMIENTO MAQUINARIAS Y HOMBRES INTRUCCIONES: CHAITEN INFO 127.4MHZ